»·PEaware :: N7GL KRNO-KFAT

N7GL :: KRNO-KFAT

FLIGHT INFORMATION

Flight Status: Arrived
Operator: Privately registered:
United States
More flights under this callsign
Pilot: Georg L. (13308)
Aircraft: BEECH AIRCRAFT SUPER KING AIR 350
(B350)
More flights by this aircraft type
Origin: KRNO Reno/Tahoe Intl
United States
Destination: KFAT Fresno Yosemite Intl
United States
More flights between these airports :: More routes between these airports
Route: +ZEFFR6 DARBI
File this flight plan on PilotEdge
Remarks:
Altitude:
(Current/Filed)
25,000ft
Speed:
(Current/Filed)
296kts
Departed: 08-Aug-20 07:49 AM
Arrived: 08-Aug-20 08:38 AM
Distance/Time
Traveled:
163nm/0:48
Distance/Time
To Go:
Arrived

Flight Plot

Page will automatically refresh every two minutes.

Flight plan parsing failed; only flown route is shown


Map Options




Map Legend


Flown Route
Filed Route
Departure Airport
Arrival Airport
Navaid (VOR, NDB)
Fix

Horizontal Profiles

Position Reports

Time Latitude Longitude Heading Altitude Ground
Speed
08-Aug-20 07:18 39.505308 -119.765268 81 4420ft 0kts
08-Aug-20 07:19 39.505308 -119.765268 81 4420ft 0kts
08-Aug-20 07:20 39.505308 -119.765268 81 4420ft 0kts
08-Aug-20 07:21 39.505308 -119.765268 81 4420ft 0kts
08-Aug-20 07:22 39.505308 -119.765268 81 4420ft 0kts
08-Aug-20 07:23 39.505308 -119.765268 81 4420ft 0kts
08-Aug-20 07:24 39.505308 -119.765268 81 4420ft 0kts
08-Aug-20 07:25 39.505308 -119.765268 81 4420ft 0kts
08-Aug-20 07:26 39.505308 -119.765268 81 4420ft 0kts
08-Aug-20 07:27 39.505308 -119.765268 81 4420ft 0kts
08-Aug-20 07:28 39.505308 -119.765268 81 4420ft 0kts
08-Aug-20 07:29 39.505308 -119.765268 81 4420ft 0kts
08-Aug-20 07:30 39.505308 -119.765268 81 4420ft 0kts
08-Aug-20 07:31 39.505308 -119.765268 81 4420ft 0kts
08-Aug-20 07:32 39.505308 -119.765268 81 4420ft 0kts
08-Aug-20 07:33 39.505308 -119.765267 81 4420ft 0kts
08-Aug-20 07:34 39.505308 -119.765267 81 4420ft 0kts
08-Aug-20 07:35 39.505308 -119.765267 81 4420ft 0kts
08-Aug-20 07:36 39.505308 -119.765267 81 4420ft 0kts
08-Aug-20 07:37 39.505308 -119.765267 81 4420ft 0kts
08-Aug-20 07:38 39.505308 -119.765267 81 4420ft 0kts
08-Aug-20 07:39 39.505308 -119.765267 81 4420ft 0kts
08-Aug-20 07:40 39.505361 -119.764995 55 4420ft 5kts
08-Aug-20 07:41 39.506711 -119.765063 281 4420ft 6kts
08-Aug-20 07:42 39.510017 -119.765692 10 4420ft 15kts
08-Aug-20 07:43 39.513497 -119.765199 342 4420ft 8kts
08-Aug-20 07:44 39.513741 -119.765660 271 4420ft 0kts
08-Aug-20 07:45 39.513741 -119.765660 271 4420ft 0kts
08-Aug-20 07:46 39.513741 -119.765659 271 4420ft 0kts
08-Aug-20 07:47 39.513292 -119.766735 186 4420ft 18kts
08-Aug-20 07:48 39.480087 -119.765087 175 5259ft 176kts
08-Aug-20 07:49 39.440825 -119.767446 185 7742ft 159kts
08-Aug-20 07:50 39.392269 -119.769452 179 8943ft 195kts
08-Aug-20 07:51 39.338677 -119.769616 179 10395ft 193kts
08-Aug-20 07:52 39.285281 -119.768556 177 11843ft 190kts
08-Aug-20 07:53 39.237674 -119.766556 178 13025ft 193kts
08-Aug-20 07:54 39.203737 -119.765262 178 13911ft 193kts
08-Aug-20 07:55 39.149847 -119.763206 178 15228ft 195kts
08-Aug-20 07:56 39.095620 -119.761140 178 16442ft 197kts
08-Aug-20 07:57 39.040594 -119.759072 178 17586ft 199kts
08-Aug-20 07:58 38.985313 -119.756979 178 18732ft 199kts
08-Aug-20 07:59 38.927652 -119.754850 178 19290ft 227kts
08-Aug-20 08:00 38.859795 -119.752481 178 19311ft 259kts
08-Aug-20 08:01 38.785965 -119.749797 178 19305ft 274kts
08-Aug-20 08:02 38.711382 -119.747071 178 19302ft 280kts
08-Aug-20 08:03 38.634105 -119.744222 178 19302ft 283kts
08-Aug-20 08:04 38.555111 -119.741299 178 19301ft 285kts
08-Aug-20 08:05 38.476990 -119.738413 178 19296ft 285kts
08-Aug-20 08:06 38.397427 -119.735480 178 19294ft 286kts
08-Aug-20 08:07 38.318049 -119.732549 177 19293ft 286kts
08-Aug-20 08:08 38.238538 -119.731144 179 19293ft 286kts
08-Aug-20 08:09 38.158770 -119.730847 179 19300ft 286kts
08-Aug-20 08:10 38.079224 -119.730195 179 19308ft 286kts
08-Aug-20 08:11 37.999167 -119.729512 179 19218ft 289kts
08-Aug-20 08:12 37.918912 -119.728737 178 19217ft 288kts
08-Aug-20 08:13 37.853731 -119.728265 179 18924ft 297kts
08-Aug-20 08:14 37.767456 -119.727719 179 17475ft 320kts
08-Aug-20 08:15 37.677757 -119.727096 178 15996ft 325kts
08-Aug-20 08:16 37.588104 -119.726462 178 14492ft 316kts
08-Aug-20 08:17 37.501591 -119.725704 178 13155ft 307kts
08-Aug-20 08:18 37.417345 -119.724934 178 13171ft 300kts
08-Aug-20 08:19 37.336016 -119.724295 178 13162ft 278kts
08-Aug-20 08:20 37.261345 -119.723350 178 13162ft 262kts
08-Aug-20 08:21 37.189007 -119.722368 178 13073ft 257kts
08-Aug-20 08:22 37.130901 -119.687717 108 12257ft 269kts
08-Aug-20 08:23 37.098198 -119.601076 143 10365ft 283kts
08-Aug-20 08:24 37.021912 -119.581392 172 8529ft 280kts
08-Aug-20 08:25 36.945342 -119.568791 171 7115ft 279kts
08-Aug-20 08:26 36.871112 -119.556216 171 5696ft 265kts
08-Aug-20 08:27 36.799978 -119.544114 172 4884ft 241kts
08-Aug-20 08:28 36.736863 -119.535722 173 4400ft 233kts
08-Aug-20 08:29 36.669993 -119.527281 173 2932ft 246kts
08-Aug-20 08:30 36.613657 -119.491671 147 2584ft 206kts
08-Aug-20 08:31 36.618849 -119.444407 352 2605ft 204kts
08-Aug-20 08:32 36.652141 -119.500056 300 2601ft 210kts
08-Aug-20 08:33 36.684350 -119.559823 305 2100ft 211kts
08-Aug-20 08:34 36.716731 -119.616325 305 1795ft 178kts
08-Aug-20 08:35 36.743563 -119.663283 305 1287ft 171kts
08-Aug-20 08:36 36.766187 -119.702923 305 501ft 113kts
08-Aug-20 08:37 36.776837 -119.721602 294 334ft 11kts
08-Aug-20 08:38 36.776304 -119.722717 215 334ft 0kts
08-Aug-20 08:39 36.775876 -119.723087 215 334ft 9kts
08-Aug-20 08:40 36.777966 -119.727750 304 334ft 21kts
08-Aug-20 08:41 36.777786 -119.729890 236 334ft 5kts
08-Aug-20 08:42 36.777909 -119.730044 34 334ft 0kts
08-Aug-20 08:43 36.777908 -119.730045 34 334ft 0kts
08-Aug-20 08:44 36.777908 -119.730045 34 334ft 0kts
08-Aug-20 08:45 36.777908 -119.730045 34 334ft 0kts
08-Aug-20 08:46 36.777908 -119.730045 34 334ft 0kts
08-Aug-20 08:47 36.777908 -119.730045 34 334ft 0kts

Navigation Log

Ident Type
Flight plan parsing failed, navigation log unavailable